Time;durP1;ratioP1;P1;durP2;ratioP2;P2;SDS_P1;SDS_P2;PMS_P1;PMS_P2;Temp;Humidity;BMP_temperature;BMP_pressure;BME280_temperature;BME280_humidity;BME280_pressure;Samples;Min_cycle;Max_cycle;Signal;HPM_P1;HPM_P2
2022/06/17 00:03:35;;;;;;;4.50;2.20;;;24.30;54.20;;;;;;219976;1270;24762;-49
2022/06/17 00:08:44;;;;;;;5.40;2.20;;;24.30;54.30;;;;;;219900;1270;24218;-47
2022/06/17 00:13:47;;;;;;;3.80;2.30;;;24.30;54.60;;;;;;219926;1270;25368;-50
2022/06/17 00:18:49;;;;;;;3.80;1.80;;;24.30;54.60;;;;;;219992;1270;25714;-51
2022/06/17 00:23:52;;;;;;;2.80;1.60;;;24.30;54.20;;;;;;220053;1270;24229;-51
2022/06/17 00:28:54;;;;;;;3.50;1.90;;;24.30;54.30;;;;;;220118;1270;22592;-50
2022/06/17 00:33:57;;;;;;;2.30;1.90;;;24.20;54.10;;;;;;219943;1270;23537;-49
2022/06/17 00:38:59;;;;;;;5.10;1.90;;;24.30;54.20;;;;;;219964;1270;22553;-49
2022/06/17 00:44:22;;;;;;;3.10;1.70;;;24.20;54.20;;;;;;220012;1270;22566;-47
2022/06/17 00:49:40;;;;;;;2.30;1.50;;;24.20;54.20;;;;;;220147;1270;22559;-50
2022/06/17 00:54:52;;;;;;;2.60;1.70;;;24.20;54.10;;;;;;220079;1270;24295;-54
2022/06/17 01:00:04;;;;;;;4.20;1.70;;;24.20;54.20;;;;;;220148;1271;22737;-51
2022/06/17 01:05:08;;;;;;;2.70;1.70;;;24.10;54.10;;;;;;220095;1270;23931;-50
2022/06/17 01:10:13;;;;;;;2.10;1.60;;;24.20;54.50;;;;;;220214;1270;25274;-50
2022/06/17 01:15:22;;;;;;;2.50;1.80;;;24.10;54.10;;;;;;220206;1270;22554;-53
2022/06/17 01:20:30;;;;;;;3.90;1.80;;;24.10;54.10;;;;;;219793;1270;522769;-50
2022/06/17 01:25:40;;;;;;;2.20;1.50;;;24.10;54.10;;;;;;219965;1270;25507;-49
2022/06/17 01:30:50;;;;;;;2.20;1.50;;;24.10;54.50;;;;;;219990;1270;22661;-51
2022/06/17 01:36:00;;;;;;;2.00;1.40;;;24.10;54.50;;;;;;220031;1270;22571;-49
2022/06/17 01:41:04;;;;;;;1.80;1.40;;;24.10;54.20;;;;;;219976;1270;25375;-51
2022/06/17 01:46:12;;;;;;;2.50;1.50;;;24.10;54.10;;;;;;220000;1270;24112;-50
2022/06/17 01:51:17;;;;;;;2.20;1.60;;;24.10;54.50;;;;;;219882;1270;22625;-52
2022/06/17 01:56:23;;;;;;;3.00;1.50;;;24.10;54.30;;;;;;219902;1270;25429;-50
2022/06/17 02:01:28;;;;;;;4.00;1.90;;;24.10;54.50;;;;;;220031;1272;22577;-50
2022/06/17 02:06:39;;;;;;;4.70;2.00;;;24.10;54.40;;;;;;220124;1270;22558;-50
2022/06/17 02:11:59;;;;;;;2.70;1.70;;;24.00;54.20;;;;;;219891;1270;24220;-52
2022/06/17 02:17:04;;;;;;;4.20;2.00;;;24.00;54.50;;;;;;219955;1270;25276;-50
2022/06/17 02:22:26;;;;;;;2.60;1.50;;;24.00;54.20;;;;;;219949;1273;22537;-53
2022/06/17 02:27:34;;;;;;;2.80;1.70;;;24.00;54.30;;;;;;219941;1271;25692;-52
2022/06/17 02:32:38;;;;;;;1.90;1.40;;;24.00;54.20;;;;;;220057;1270;25572;-52
2022/06/17 02:37:42;;;;;;;4.60;1.90;;;24.00;54.30;;;;;;219889;1270;24243;-54
2022/06/17 02:42:44;;;;;;;2.70;1.70;;;23.90;54.20;;;;;;219985;1270;22816;-49
2022/06/17 02:47:47;;;;;;;2.50;1.40;;;23.90;54.30;;;;;;219988;1270;22568;-50
2022/06/17 02:52:51;;;;;;;3.40;1.80;;;23.90;54.20;;;;;;219846;1271;26617;-50
2022/06/17 02:58:04;;;;;;;4.80;2.10;;;23.90;54.30;;;;;;220085;1270;22566;-49
2022/06/17 03:03:10;;;;;;;1.90;1.40;;;23.90;54.30;;;;;;219806;1271;22575;-52
2022/06/17 03:08:21;;;;;;;3.30;1.70;;;23.90;54.30;;;;;;219940;1271;22559;-51
2022/06/17 03:13:26;;;;;;;2.10;1.40;;;23.90;54.30;;;;;;219692;1271;24319;-51
2022/06/17 03:18:29;;;;;;;2.50;1.50;;;23.90;54.30;;;;;;220007;1270;24217;-50
2022/06/17 03:23:59;;;;;;;4.30;1.90;;;23.90;54.30;;;;;;220002;1271;25551;-54
2022/06/17 03:29:06;;;;;;;3.00;1.60;;;23.90;54.30;;;;;;219878;1270;24281;-53
2022/06/17 03:34:18;;;;;;;3.60;1.60;;;23.80;54.30;;;;;;219994;1270;22810;-53
2022/06/17 03:39:39;;;;;;;2.00;1.50;;;23.80;54.30;;;;;;219872;1270;25352;-51
2022/06/17 03:45:05;;;;;;;2.80;1.50;;;23.80;54.60;;;;;;219829;1271;22762;-52
2022/06/17 03:50:18;;;;;;;2.20;1.40;;;23.80;54.30;;;;;;220019;1270;22806;-54
2022/06/17 03:55:22;;;;;;;4.80;1.90;;;23.80;54.30;;;;;;219816;1271;22552;-51
2022/06/17 04:00:31;;;;;;;2.00;1.30;;;23.80;54.30;;;;;;220194;1270;25337;-50
2022/06/17 04:05:34;;;;;;;3.90;1.70;;;23.80;54.50;;;;;;220005;1270;22544;-49
2022/06/17 04:10:39;;;;;;;2.10;1.50;;;23.80;54.20;;;;;;219907;1270;22605;-52
2022/06/17 04:16:03;;;;;;;3.40;1.70;;;23.80;54.20;;;;;;220038;1270;22639;-52
2022/06/17 04:21:09;;;;;;;3.40;1.60;;;23.80;54.20;;;;;;219883;1270;24436;-49
2022/06/17 04:26:26;;;;;;;2.40;1.40;;;23.80;54.20;;;;;;220064;1270;24292;-51
2022/06/17 04:31:32;;;;;;;3.60;1.60;;;23.80;54.20;;;;;;220067;1271;22574;-50
2022/06/17 04:36:48;;;;;;;3.80;1.70;;;23.80;54.20;;;;;;220038;1270;22570;-52
2022/06/17 04:41:55;;;;;;;5.40;1.80;;;23.80;54.20;;;;;;219910;1270;22582;-52
2022/06/17 04:47:19;;;;;;;5.50;1.80;;;23.80;54.20;;;;;;219942;1270;22704;-53
2022/06/17 04:52:36;;;;;;;;;;;23.80;54.20;;;;;;219911;1270;24284;-52
2022/06/17 04:57:51;;;;;;;6.30;2.20;;;23.80;54.10;;;;;;220048;1270;22702;-51
2022/06/17 05:02:55;;;;;;;4.20;1.90;;;23.80;54.10;;;;;;220038;1270;24299;-52
2022/06/17 05:08:25;;;;;;;3.20;1.70;;;23.80;54.10;;;;;;220095;1270;24286;-51
2022/06/17 05:13:35;;;;;;;7.00;2.20;;;23.80;54.10;;;;;;220101;1270;25233;-52
2022/06/17 05:18:39;;;;;;;5.00;1.80;;;23.80;54.10;;;;;;220171;1270;24241;-53
2022/06/17 05:23:48;;;;;;;4.40;1.90;;;23.80;54.00;;;;;;220162;1270;23482;-50
2022/06/17 05:28:51;;;;;;;12.30;2.80;;;23.80;54.00;;;;;;219946;1270;24207;-54
2022/06/17 05:33:55;;;;;;;4.00;1.90;;;23.80;54.00;;;;;;220009;1270;24479;-51
2022/06/17 05:38:58;;;;;;;2.90;1.50;;;23.80;53.90;;;;;;220006;1270;24496;-50
2022/06/17 05:44:02;;;;;;;3.20;1.40;;;23.90;54.00;;;;;;219877;1270;22700;-55
2022/06/17 05:49:14;;;;;;;7.00;1.70;;;23.80;53.90;;;;;;220016;1270;22601;-51
2022/06/17 05:54:29;;;;;;;7.50;2.00;;;23.90;53.90;;;;;;219991;1270;24238;-51
2022/06/17 05:59:40;;;;;;;4.70;2.00;;;23.90;53.90;;;;;;220031;1270;22544;-50
2022/06/17 06:04:44;;;;;;;3.60;1.80;;;23.90;53.80;;;;;;219939;1271;24064;-50
2022/06/17 06:09:47;;;;;;;3.70;1.50;;;23.90;54.10;;;;;;219853;1270;24293;-55
2022/06/17 06:14:50;;;;;;;1.90;1.30;;;23.90;53.70;;;;;;219751;1270;22560;-54
2022/06/17 06:19:54;;;;;;;1.60;1.20;;;23.90;53.70;;;;;;219902;1273;24405;-52
2022/06/17 06:24:56;;;;;;;3.00;1.50;;;23.90;53.60;;;;;;219811;1270;26510;-49
2022/06/17 06:29:58;;;;;;;4.90;1.60;;;23.90;54.00;;;;;;220011;1270;24391;-48
2022/06/17 06:35:05;;;;;;;2.90;1.70;;;23.90;53.60;;;;;;220066;1270;22592;-51
2022/06/17 06:40:09;;;;;;;2.50;1.40;;;23.90;53.60;;;;;;220137;1270;25119;-49
2022/06/17 06:45:21;;;;;;;4.60;1.60;;;23.90;53.50;;;;;;220075;1273;22561;-52
2022/06/17 06:50:28;;;;;;;2.70;1.40;;;24.00;53.60;;;;;;220089;1270;24323;-50
2022/06/17 06:55:31;;;;;;;2.10;1.40;;;24.00;53.50;;;;;;219920;1271;22601;-51
2022/06/17 07:00:37;;;;;;;3.30;1.60;;;24.00;53.50;;;;;;219913;1272;25650;-51
2022/06/17 07:05:42;;;;;;;2.60;1.40;;;24.00;53.50;;;;;;219981;1270;22862;-49
2022/06/17 07:10:47;;;;;;;2.90;1.50;;;24.00;53.60;;;;;;219830;1270;25223;-49
2022/06/17 07:15:53;;;;;;;3.40;1.50;;;24.00;53.50;;;;;;220126;1270;22622;-50
2022/06/17 07:20:58;;;;;;;2.70;1.50;;;24.10;53.80;;;;;;220150;1270;22704;-51
2022/06/17 07:26:05;;;;;;;4.00;1.70;;;24.10;53.40;;;;;;219874;1270;22998;-50
2022/06/17 07:31:07;;;;;;;2.40;1.30;;;24.10;53.40;;;;;;220141;1270;25379;-51
2022/06/17 07:39:53;;;;;;;3.50;1.70;;;24.10;53.00;;;;;;219941;1271;24292;-51
2022/06/17 07:41:39;;;;;;;2.10;1.30;;;24.10;53.40;;;;;;219756;1273;23407;-49
2022/06/17 07:46:42;;;;;;;2.00;1.30;;;24.10;53.40;;;;;;220084;1270;24797;-52
2022/06/17 07:51:50;;;;;;;2.50;1.40;;;24.10;53.40;;;;;;220059;1270;24300;-49
2022/06/17 07:56:53;;;;;;;2.30;1.40;;;24.10;54.00;;;;;;219900;1271;24082;-50
2022/06/17 08:02:00;;;;;;;2.30;1.40;;;24.20;53.70;;;;;;220065;1270;25583;-50
2022/06/17 08:07:04;;;;;;;4.00;1.60;;;24.20;53.40;;;;;;219947;1271;24395;-48
2022/06/17 08:12:11;;;;;;;3.20;1.40;;;24.20;53.30;;;;;;220127;1270;24296;-52
2022/06/17 08:17:21;;;;;;;2.10;1.40;;;24.20;53.30;;;;;;220187;1270;22668;-50
2022/06/17 08:22:29;;;;;;;2.80;1.40;;;24.20;53.30;;;;;;220119;1270;22577;-51
2022/06/17 08:27:40;;;;;;;;;;;24.30;53.30;;;;;;219988;1273;22732;-48
2022/06/17 08:32:46;;;;;;;3.20;1.80;;;24.30;53.30;;;;;;220110;1271;22580;-51
2022/06/17 08:37:53;;;;;;;4.30;2.00;;;24.30;53.30;;;;;;219866;1273;22560;-50
2022/06/17 08:43:04;;;;;;;4.40;2.00;;;24.30;53.30;;;;;;220057;1270;25518;-48
2022/06/17 08:48:45;;;;;;;2.40;1.30;;;24.30;53.60;;;;;;219859;1271;22590;-51
2022/06/17 08:53:53;;;;;;;1.80;1.30;;;24.30;53.20;;;;;;219763;1273;23962;-48
2022/06/17 08:59:25;;;;;;;1.90;1.30;;;24.30;53.50;;;;;;220022;1270;22563;-49
2022/06/17 09:04:41;;;;;;;3.30;1.50;;;24.30;53.10;;;;;;219759;1271;22541;-50
2022/06/17 09:10:14;;;;;;;2.50;1.50;;;24.40;53.20;;;;;;219889;1273;25495;-49
2022/06/17 09:15:44;;;;;;;3.90;1.70;;;24.40;53.50;;;;;;219750;1271;24312;-53
2022/06/17 09:20:50;;;;;;;2.50;1.40;;;24.40;53.10;;;;;;219839;1272;25419;-49
2022/06/17 09:25:54;;;;;;;4.70;1.80;;;24.40;52.60;;;;;;219808;1270;24311;-52
2022/06/17 09:31:01;;;;;;;1.50;1.20;;;24.50;53.10;;;;;;220030;1271;25393;-47
2022/06/17 09:36:17;;;;;;;4.10;1.90;;;24.50;52.60;;;;;;219888;1272;22564;-48
2022/06/17 09:41:42;;;;;;;2.20;1.30;;;24.50;53.00;;;;;;219749;1271;22567;-52
2022/06/17 09:46:57;;;;;;;5.90;2.00;;;24.50;53.00;;;;;;219959;1271;25467;-49
2022/06/17 09:52:16;;;;;;;2.30;1.30;;;24.50;53.00;;;;;;219784;1273;24322;-48
2022/06/17 09:57:24;;;;;;;2.40;1.50;;;24.50;53.00;;;;;;220087;1271;22697;-46
2022/06/17 10:02:53;;;;;;;2.20;1.50;;;24.50;52.90;;;;;;219952;1270;25269;-49
2022/06/17 10:08:20;;;;;;;1.50;1.20;;;24.60;52.90;;;;;;220146;1270;24243;-49
2022/06/17 10:13:34;;;;;;;2.90;1.40;;;24.60;52.80;;;;;;220057;1270;23485;-52
2022/06/17 10:18:48;;;;;;;1.70;1.10;;;24.60;52.80;;;;;;220162;1270;22539;-49
2022/06/17 10:24:29;;;;;;;1.70;1.20;;;24.60;52.80;;;;;;219822;1271;25282;-50
2022/06/17 10:29:58;;;;;;;4.40;1.70;;;24.70;52.80;;;;;;219993;1271;23033;-52
2022/06/17 10:35:03;;;;;;;5.70;2.00;;;24.70;52.80;;;;;;219877;1271;22703;-50
2022/06/17 10:40:09;;;;;;;7.70;2.30;;;24.70;52.70;;;;;;219882;1271;25336;-49
2022/06/17 10:45:17;;;;;;;6.70;1.90;;;24.70;52.70;;;;;;219953;1272;22560;-48
2022/06/17 10:50:22;;;;;;;2.00;1.40;;;24.70;52.70;;;;;;219835;1271;25352;-49
2022/06/17 10:55:34;;;;;;;1.90;1.20;;;24.70;52.60;;;;;;219700;1271;25468;-48
2022/06/17 11:00:56;;;;;;;3.00;1.30;;;24.80;52.90;;;;;;219980;1271;24584;-50
2022/06/17 11:06:14;;;;;;;2.90;1.60;;;24.70;52.60;;;;;;219966;1271;22695;-50
2022/06/17 11:17:25;;;;;;;2.10;1.30;;;24.80;52.90;;;;;;219951;1272;22831;-49
2022/06/17 11:22:39;;;;;;;3.90;1.60;;;24.80;52.50;;;;;;219945;1270;24394;-50
2022/06/17 11:27:43;;;;;;;4.80;1.70;;;24.80;52.50;;;;;;219790;1271;24305;-50
2022/06/17 11:32:59;;;;;;;4.50;1.90;;;24.90;52.50;;;;;;220217;1270;22542;-48
2022/06/17 11:38:03;;;;;;;2.10;1.20;;;24.90;52.50;;;;;;220097;1270;22567;-48
2022/06/17 11:43:12;;;;;;;1.70;1.20;;;24.90;52.40;;;;;;220255;1271;23490;-52
2022/06/17 11:48:20;;;;;;;2.00;1.40;;;24.90;52.40;;;;;;219953;1272;25367;-49
2022/06/17 11:53:24;;;;;;;1.70;1.20;;;24.90;51.90;;;;;;220012;1270;25318;-49
2022/06/17 11:58:32;;;;;;;1.90;1.40;;;24.90;52.40;;;;;;220005;1272;22610;-48
2022/06/17 12:03:37;;;;;;;1.70;1.30;;;25.00;52.40;;;;;;220135;1271;24255;-50
2022/06/17 12:09:02;;;;;;;2.20;1.20;;;24.90;52.30;;;;;;219946;1272;22517;-50
2022/06/17 12:14:49;;;;;;;2.20;1.40;;;25.00;52.30;;;;;;220088;1270;22557;-50
2022/06/17 12:19:52;;;;;;;1.70;1.30;;;25.00;52.30;;;;;;219847;1272;22560;-51
2022/06/17 12:25:06;;;;;;;1.50;1.20;;;25.00;52.30;;;;;;219963;1271;22556;-48
2022/06/17 12:30:15;;;;;;;1.70;1.20;;;25.00;52.20;;;;;;219995;1271;22547;-49
2022/06/17 12:35:46;;;;;;;1.70;1.20;;;25.10;52.30;;;;;;219967;1271;24168;-49
2022/06/17 12:41:10;;;;;;;4.10;1.50;;;25.10;52.30;;;;;;220090;1270;22541;-50
2022/06/17 12:46:26;;;;;;;8.10;2.00;;;25.10;52.30;;;;;;220283;1270;24513;-49
2022/06/17 12:57:16;;;;;;;1.80;1.20;;;25.10;52.20;;;;;;219920;1272;22550;-48
2022/06/17 13:02:30;;;;;;;2.20;1.50;;;25.10;52.20;;;;;;220093;1271;22550;-49
2022/06/17 13:07:47;;;;;;;3.20;1.40;;;25.10;52.20;;;;;;220100;1271;23855;-49
2022/06/17 13:13:06;;;;;;;4.60;1.60;;;25.10;52.50;;;;;;220053;1270;22568;-47
2022/06/17 13:18:51;;;;;;;3.00;1.60;;;25.10;52.10;;;;;;219719;1271;431138;-47
2022/06/17 13:24:12;;;;;;;4.40;1.70;;;25.10;52.20;;;;;;219905;1271;22712;-48
2022/06/17 13:29:14;;;;;;;;;;;25.20;52.20;;;;;;220011;1271;25497;-48
2022/06/17 13:34:36;;;;;;;2.60;1.50;;;25.20;52.20;;;;;;220018;1271;22540;-52
2022/06/17 13:39:46;;;;;;;3.30;1.50;;;25.20;52.20;;;;;;219949;1271;25453;-49
2022/06/17 13:45:10;;;;;;;2.80;1.40;;;25.20;52.20;;;;;;220046;1270;24252;-49
2022/06/17 13:50:37;;;;;;;1.90;1.40;;;25.10;52.10;;;;;;220030;1271;23482;-48
2022/06/17 13:56:16;;;;;;;2.50;1.40;;;25.20;52.20;;;;;;219964;1271;22544;-49
2022/06/17 14:01:34;;;;;;;1.80;1.40;;;25.20;52.30;;;;;;219855;1272;22662;-48
2022/06/17 14:06:49;;;;;;;1.70;1.30;;;25.20;52.30;;;;;;220000;1274;24232;-50
2022/06/17 14:11:51;;;;;;;2.30;1.40;;;25.20;52.20;;;;;;220039;1272;25273;-52
2022/06/17 14:17:14;;;;;;;2.40;1.40;;;25.20;52.30;;;;;;220213;1274;25481;-47
2022/06/17 14:22:20;;;;;;;2.30;1.50;;;25.20;52.30;;;;;;220227;1271;23067;-50
2022/06/17 14:27:25;;;;;;;1.80;1.20;;;25.20;52.90;;;;;;220046;1271;22547;-48
2022/06/17 14:32:53;;;;;;;4.40;1.70;;;25.20;52.30;;;;;;220000;1271;22567;-49
2022/06/17 14:38:23;;;;;;;1.60;1.30;;;25.20;52.20;;;;;;220240;1271;24357;-49
2022/06/17 14:43:27;;;;;;;3.60;1.50;;;25.20;52.30;;;;;;220106;1271;22576;-52
2022/06/17 14:48:39;;;;;;;2.60;1.40;;;25.20;52.90;;;;;;220032;1272;23537;-50
2022/06/17 14:53:50;;;;;;;3.50;1.50;;;25.20;52.20;;;;;;219937;1271;25271;-51
2022/06/17 14:58:58;;;;;;;4.00;1.70;;;25.20;52.30;;;;;;219954;1271;24234;-48
2022/06/17 15:04:13;;;;;;;3.40;1.50;;;25.20;52.30;;;;;;219995;1271;24237;-47
2022/06/17 15:09:29;;;;;;;2.00;1.30;;;25.30;52.40;;;;;;219875;1271;24752;-50
2022/06/17 15:14:48;;;;;;;2.10;1.30;;;25.30;52.40;;;;;;219947;1271;23181;-47
2022/06/17 15:19:51;;;;;;;3.00;1.50;;;25.30;52.40;;;;;;219889;1274;22583;-49
2022/06/17 15:25:17;;;;;;;3.90;1.60;;;25.30;52.40;;;;;;219989;1274;22575;-48
2022/06/17 15:30:42;;;;;;;2.40;1.40;;;25.30;52.50;;;;;;219964;1272;22672;-49
2022/06/17 15:35:46;;;;;;;7.10;2.20;;;25.30;52.50;;;;;;220152;1270;24241;-49
2022/06/17 15:40:49;;;;;;;7.40;2.20;;;25.20;52.40;;;;;;219931;1271;24283;-48
2022/06/17 15:45:51;;;;;;;2.80;1.40;;;25.30;52.50;;;;;;219856;1270;25347;-48
2022/06/17 15:50:57;;;;;;;3.80;1.60;;;25.20;52.70;;;;;;219980;1271;24381;-48
2022/06/17 15:56:01;;;;;;;1.70;1.20;;;25.30;52.50;;;;;;220019;1274;22568;-47
2022/06/17 16:07:48;;;;;;;3.30;1.60;;;25.20;52.80;;;;;;220095;1272;25378;-50
2022/06/17 16:13:17;;;;;;;3.50;1.60;;;25.30;53.00;;;;;;219887;1271;25318;-49
2022/06/17 16:18:39;;;;;;;2.30;1.30;;;25.30;52.60;;;;;;220061;1272;25388;-48
2022/06/17 16:23:42;;;;;;;1.50;1.10;;;25.30;52.60;;;;;;220058;1271;23008;-51
2022/06/17 16:28:49;;;;;;;2.80;1.50;;;25.20;52.60;;;;;;220120;1270;25466;-49
2022/06/17 16:34:02;;;;;;;3.60;1.40;;;25.20;52.60;;;;;;219928;1271;22612;-52
2022/06/17 16:39:25;;;;;;;4.00;1.50;;;25.30;52.80;;;;;;219844;1271;24734;-48
2022/06/17 16:44:35;;;;;;;2.10;1.30;;;25.20;52.60;;;;;;219857;1271;22808;-47
2022/06/17 16:49:47;;;;;;;2.00;1.50;;;25.20;52.90;;;;;;220020;1270;25346;-49
2022/06/17 16:54:53;;;;;;;2.10;1.30;;;25.20;52.90;;;;;;219978;1271;24917;-51
2022/06/17 17:00:04;;;;;;;3.50;1.60;;;25.20;52.60;;;;;;220074;1270;22583;-50
2022/06/17 17:05:09;;;;;;;2.00;1.40;;;25.20;52.60;;;;;;220055;1270;22708;-49
2022/06/17 17:10:15;;;;;;;1.90;1.30;;;25.20;52.50;;;;;;220043;1270;22562;-48
2022/06/17 17:15:20;;;;;;;2.50;1.50;;;25.20;52.60;;;;;;220193;1270;25368;-49
2022/06/17 17:20:26;;;;;;;2.10;1.50;;;25.20;52.60;;;;;;220049;1271;24178;-48
2022/06/17 17:25:40;;;;;;;3.10;1.40;;;25.20;52.60;;;;;;219992;1271;24273;-51
2022/06/17 17:30:53;;;;;;;3.50;1.40;;;25.20;52.60;;;;;;220089;1270;22559;-47
2022/06/17 17:35:56;;;;;;;5.20;1.80;;;25.20;52.60;;;;;;220104;1270;22586;-52
2022/06/17 17:41:44;;;;;;;3.40;1.60;;;25.20;52.70;;;;;;219996;1271;24248;-58
2022/06/17 17:46:28;;;;;;;2.90;1.60;;;25.20;52.60;;;;;;219874;1271;23109;-48
2022/06/17 17:51:35;;;;;;;2.50;1.50;;;25.20;52.80;;;;;;220008;1270;23693;-48
2022/06/17 17:56:39;;;;;;;2.00;1.40;;;25.20;52.60;;;;;;219819;1270;22568;-54
2022/06/17 18:01:44;;;;;;;2.00;1.30;;;25.20;52.60;;;;;;220203;1272;22554;-51
2022/06/17 18:06:47;;;;;;;2.10;1.30;;;25.20;52.50;;;;;;220095;1270;24885;-54
2022/06/17 18:11:54;;;;;;;2.20;1.40;;;25.20;53.10;;;;;;220088;1271;23921;-49
2022/06/17 18:16:56;;;;;;;3.50;1.70;;;25.20;53.00;;;;;;220107;1270;25322;-48
2022/06/17 18:22:02;;;;;;;2.00;1.30;;;25.20;52.60;;;;;;219992;1270;22569;-50
2022/06/17 18:27:11;;;;;;;3.20;1.50;;;25.10;52.90;;;;;;219994;1271;25501;-50
2022/06/17 18:32:20;;;;;;;2.20;1.30;;;25.10;53.10;;;;;;220048;1272;22562;-49
2022/06/17 18:37:37;;;;;;;2.40;1.30;;;25.10;52.80;;;;;;220276;1271;25162;-50
2022/06/17 18:42:41;;;;;;;3.40;1.60;;;25.10;52.80;;;;;;220287;1270;24426;-49
2022/06/17 18:47:47;;;;;;;2.00;1.40;;;25.10;53.00;;;;;;220064;1272;24413;-51
2022/06/17 18:52:54;;;;;;;4.50;1.50;;;25.10;52.70;;;;;;220369;1270;22574;-52
2022/06/17 18:58:12;;;;;;;5.40;1.80;;;25.10;52.70;;;;;;220209;1270;25544;-49
2022/06/17 19:03:31;;;;;;;4.60;1.70;;;25.10;53.10;;;;;;220087;1270;22570;-49
2022/06/17 19:19:17;;;;;;;3.60;1.30;;;25.00;52.90;;;;;;220216;1271;22563;-50
2022/06/17 19:24:19;;;;;;;4.80;1.60;;;25.10;53.00;;;;;;220048;1270;22563;-57
2022/06/17 19:29:42;;;;;;;7.10;2.00;;;25.00;52.90;;;;;;219988;1271;23163;-53
2022/06/17 19:34:45;;;;;;;5.30;1.90;;;25.00;52.90;;;;;;219900;1270;22628;-49
2022/06/17 19:39:48;;;;;;;4.40;1.80;;;25.00;53.10;;;;;;220053;1270;24360;-51
2022/06/17 19:44:50;;;;;;;2.40;1.30;;;25.00;53.10;;;;;;219737;1270;23284;-48
2022/06/17 19:49:55;;;;;;;6.30;1.50;;;24.90;53.00;;;;;;219749;1270;22560;-53
2022/06/17 19:55:05;;;;;;;5.50;1.40;;;25.00;53.00;;;;;;219803;1271;22576;-51
2022/06/17 20:00:09;;;;;;;3.70;1.60;;;25.00;53.10;;;;;;219749;1271;25474;-51
2022/06/17 20:05:21;;;;;;;2.30;1.40;;;24.90;53.00;;;;;;219801;1270;22655;-50
2022/06/17 20:10:26;;;;;;;5.20;1.40;;;24.90;53.20;;;;;;220069;1271;22642;-55
2022/06/17 20:15:29;;;;;;;4.00;1.70;;;24.90;53.10;;;;;;220277;1270;25576;-50
2022/06/17 20:20:36;;;;;;;1.80;1.40;;;24.90;53.50;;;;;;219932;1272;24238;-48
2022/06/17 20:25:41;;;;;;;3.80;1.60;;;24.90;53.20;;;;;;220169;1271;24802;-54
2022/06/17 20:30:51;;;;;;;3.30;1.70;;;24.90;53.20;;;;;;220365;1270;24837;-55
2022/06/17 20:35:58;;;;;;;;;;;24.90;53.20;;;;;;220248;1271;22539;-49
2022/06/17 20:41:12;;;;;;;2.40;1.40;;;24.90;53.20;;;;;;220280;1271;22715;-55
2022/06/17 20:51:47;;;;;;;6.60;1.70;;;24.90;53.60;;;;;;219841;1270;22784;-54
2022/06/17 21:02:57;;;;;;;2.90;1.50;;;24.90;53.40;;;;;;219841;1270;22553;-52
2022/06/17 21:07:59;;;;;;;6.10;1.70;;;24.80;53.30;;;;;;219897;1269;22700;-51
2022/06/17 21:13:11;;;;;;;3.10;1.80;;;24.80;53.40;;;;;;219747;1270;24196;-49
2022/06/17 21:18:15;;;;;;;6.00;2.20;;;24.90;53.80;;;;;;220109;1270;24173;-49
2022/06/17 21:23:37;;;;;;;5.30;2.20;;;24.80;53.50;;;;;;219647;1271;27242;-48
2022/06/17 21:28:40;;;;;;;2.40;1.70;;;24.80;53.80;;;;;;219987;1270;22703;-50
2022/06/17 21:33:46;;;;;;;4.80;2.00;;;24.80;53.60;;;;;;219870;1270;22561;-52
2022/06/17 21:38:54;;;;;;;6.10;1.90;;;24.80;53.60;;;;;;220144;1270;22726;-49
2022/06/17 21:43:57;;;;;;;5.70;2.00;;;24.80;53.60;;;;;;220075;1270;25232;-50
2022/06/17 21:49:05;;;;;;;3.50;1.70;;;24.80;53.60;;;;;;220187;1270;23288;-49
2022/06/17 21:54:17;;;;;;;4.60;1.70;;;24.80;53.70;;;;;;220044;1270;22711;-51
2022/06/17 21:59:29;;;;;;;3.50;1.70;;;24.70;53.70;;;;;;219974;1271;25617;-50
2022/06/17 22:04:32;;;;;;;2.80;1.60;;;24.70;53.70;;;;;;220057;1271;22577;-51
2022/06/17 22:09:36;;;;;;;3.20;1.60;;;24.70;53.70;;;;;;220016;1270;25485;-49
2022/06/17 22:14:48;;;;;;;2.80;1.60;;;24.70;53.70;;;;;;220044;1271;25513;-50
2022/06/17 22:19:55;;;;;;;3.40;1.50;;;24.70;53.70;;;;;;220214;1270;25247;-49
2022/06/17 22:25:01;;;;;;;10.00;2.20;;;24.70;53.70;;;;;;220182;1270;24235;-51
2022/06/17 22:30:04;;;;;;;7.40;2.30;;;24.70;53.80;;;;;;220232;1270;24157;-49
2022/06/17 22:35:16;;;;;;;3.10;1.80;;;24.70;53.90;;;;;;220072;1270;22906;-48
2022/06/17 22:40:20;;;;;;;6.30;2.00;;;24.70;53.80;;;;;;220194;1270;22617;-51
2022/06/17 22:45:26;;;;;;;3.70;2.00;;;24.70;53.80;;;;;;220129;1270;23068;-49
2022/06/17 22:50:33;;;;;;;4.00;1.80;;;24.70;54.10;;;;;;220154;1270;25246;-50
2022/06/17 22:55:44;;;;;;;6.40;2.10;;;24.70;53.80;;;;;;220079;1271;25993;-50
2022/06/17 23:00:49;;;;;;;2.30;1.40;;;24.70;53.40;;;;;;220157;1271;25646;-46
2022/06/17 23:06:04;;;;;;;5.40;2.10;;;24.60;53.80;;;;;;220125;1270;22544;-52
2022/06/17 23:11:16;;;;;;;4.60;1.90;;;24.60;53.80;;;;;;220241;1270;24434;-49
2022/06/17 23:16:24;;;;;;;2.60;1.60;;;24.60;53.80;;;;;;220037;1270;22768;-49
2022/06/17 23:21:38;;;;;;;2.60;1.80;;;24.70;54.20;;;;;;220238;1270;25127;-49
2022/06/17 23:26:40;;;;;;;4.20;1.70;;;24.60;53.80;;;;;;220142;1270;24908;-52
2022/06/17 23:31:46;;;;;;;4.90;2.10;;;24.60;54.20;;;;;;220116;1271;22731;-50
2022/06/17 23:36:51;;;;;;;4.90;1.90;;;24.60;53.90;;;;;;220209;1270;24314;-48
2022/06/17 23:41:55;;;;;;;2.50;1.60;;;24.60;53.90;;;;;;220105;1273;24111;-50
2022/06/17 23:47:03;;;;;;;6.00;2.10;;;24.60;53.90;;;;;;220056;1270;24997;-50
2022/06/17 23:52:06;;;;;;;4.10;1.80;;;24.60;54.00;;;;;;220277;1270;25447;-50
2022/06/17 23:57:13;;;;;;;7.60;2.30;;;24.50;54.00;;;;;;220146;1271;24267;-50
